Main page
METAR-TAF:

METAR-TAF

Airports :

Clermont-Ferrand Auvergne Airport

Clermont-Ferrand, France

latitude: 45-47N, longitude: 003-10E, elevation: 332 m

Current weather observation

The report was made 33 minutes ago, at 09:30 UTC
Wind 5 kt from the North, varying between Northwest and Northeast
Temperature 18°C
Humidity 52%
Pressure 1025 hPa
Visibility 10 km or more
no clouds below 1500 m and no cumulonimbus

METAR: LFLC 230930Z AUTO 36005KT 310V050 CAVOK 18/08 Q1025 NOSIG

Time: 12:03 (10:03 UTC)

Forecast

The report was made 2 hours and 3 minutes ago, at 08:00 UTC
Forecast valid from 23 at 09 UTC to 24 at 09 UTC
Wind 8 kt from the North
Visibility 10 km or more
no clouds below 1500 m and no cumulonimbus

TAF: LFLC 230800Z 2309/2409 35008KT CAVOK

Weather observations and forecasts of more than 4000 airports (METAR and TAF reports).

The available stations are represented by yellow and red dots on the map.

Hover mouse over dot to see the name of the station.

Then click to see weather observations and forecasts.

To change the map : click on the green buttons with a black cross to zoom in, on the green button with a dash to zoom out, or on the green arrows for adjacent maps.


METAR-TAF: